sensor_id;sensor_type;location;lat;lon;timestamp;P1;durP1;ratioP1;P2;durP2;ratioP2
76593;SDS011;65482;50.240;14.302;2023-07-20T00:02:19;4.25;;;2.25;;
76593;SDS011;65482;50.240;14.302;2023-07-20T00:04:45;6.00;;;2.25;;
76593;SDS011;65482;50.240;14.302;2023-07-20T00:07:10;3.78;;;2.03;;
76593;SDS011;65482;50.240;14.302;2023-07-20T00:09:36;2.95;;;2.13;;
76593;SDS011;65482;50.240;14.302;2023-07-20T00:12:01;3.20;;;2.28;;
76593;SDS011;65482;50.240;14.302;2023-07-20T00:14:27;6.22;;;2.17;;
76593;SDS011;65482;50.240;14.302;2023-07-20T00:16:54;3.15;;;2.08;;
76593;SDS011;65482;50.240;14.302;2023-07-20T00:19:24;3.97;;;2.20;;
76593;SDS011;65482;50.240;14.302;2023-07-20T00:21:51;4.85;;;2.20;;
76593;SDS011;65482;50.240;14.302;2023-07-20T00:24:16;3.95;;;2.00;;
76593;SDS011;65482;50.240;14.302;2023-07-20T00:26:42;6.97;;;2.53;;
76593;SDS011;65482;50.240;14.302;2023-07-20T00:29:08;10.48;;;2.58;;
76593;SDS011;65482;50.240;14.302;2023-07-20T00:31:33;4.68;;;2.20;;
76593;SDS011;65482;50.240;14.302;2023-07-20T00:34:00;6.65;;;2.30;;
76593;SDS011;65482;50.240;14.302;2023-07-20T00:36:26;4.68;;;2.03;;
76593;SDS011;65482;50.240;14.302;2023-07-20T00:38:51;5.38;;;2.45;;
76593;SDS011;65482;50.240;14.302;2023-07-20T00:41:17;3.85;;;2.00;;
76593;SDS011;65482;50.240;14.302;2023-07-20T00:43:42;5.45;;;2.75;;
76593;SDS011;65482;50.240;14.302;2023-07-20T00:46:08;4.55;;;2.25;;
76593;SDS011;65482;50.240;14.302;2023-07-20T00:48:35;4.18;;;2.38;;
76593;SDS011;65482;50.240;14.302;2023-07-20T00:51:00;2.90;;;2.30;;
76593;SDS011;65482;50.240;14.302;2023-07-20T00:53:27;4.53;;;2.55;;
76593;SDS011;65482;50.240;14.302;2023-07-20T00:55:53;2.80;;;2.17;;
76593;SDS011;65482;50.240;14.302;2023-07-20T00:58:19;3.25;;;2.17;;
76593;SDS011;65482;50.240;14.302;2023-07-20T01:00:45;3.80;;;2.55;;
76593;SDS011;65482;50.240;14.302;2023-07-20T01:03:12;3.25;;;2.25;;
76593;SDS011;65482;50.240;14.302;2023-07-20T01:05:42;6.18;;;2.53;;
76593;SDS011;65482;50.240;14.302;2023-07-20T01:08:24;3.10;;;2.10;;
76593;SDS011;65482;50.240;14.302;2023-07-20T01:11:25;3.40;;;2.33;;
76593;SDS011;65482;50.240;14.302;2023-07-20T01:13:53;4.00;;;2.30;;
76593;SDS011;65482;50.240;14.302;2023-07-20T01:16:19;3.78;;;2.60;;
76593;SDS011;65482;50.240;14.302;2023-07-20T01:18:44;4.70;;;2.20;;
76593;SDS011;65482;50.240;14.302;2023-07-20T01:21:19;5.63;;;2.58;;
76593;SDS011;65482;50.240;14.302;2023-07-20T01:32:29;4.93;;;2.13;;
76593;SDS011;65482;50.240;14.302;2023-07-20T01:34:56;7.13;;;2.60;;
76593;SDS011;65482;50.240;14.302;2023-07-20T01:37:24;5.60;;;2.58;;
76593;SDS011;65482;50.240;14.302;2023-07-20T01:39:55;3.85;;;2.30;;
76593;SDS011;65482;50.240;14.302;2023-07-20T01:42:21;4.63;;;2.40;;
76593;SDS011;65482;50.240;14.302;2023-07-20T01:44:50;4.88;;;2.70;;
76593;SDS011;65482;50.240;14.302;2023-07-20T01:47:16;4.88;;;2.75;;
76593;SDS011;65482;50.240;14.302;2023-07-20T01:49:42;4.70;;;2.33;;
76593;SDS011;65482;50.240;14.302;2023-07-20T01:52:07;6.03;;;3.03;;
76593;SDS011;65482;50.240;14.302;2023-07-20T01:54:33;3.65;;;2.40;;
76593;SDS011;65482;50.240;14.302;2023-07-20T01:56:58;5.05;;;2.63;;
76593;SDS011;65482;50.240;14.302;2023-07-20T01:59:24;4.45;;;2.50;;
76593;SDS011;65482;50.240;14.302;2023-07-20T02:01:49;5.78;;;3.00;;
76593;SDS011;65482;50.240;14.302;2023-07-20T02:04:15;3.67;;;2.70;;
76593;SDS011;65482;50.240;14.302;2023-07-20T02:06:40;2.90;;;2.55;;
76593;SDS011;65482;50.240;14.302;2023-07-20T02:09:06;6.10;;;2.53;;
76593;SDS011;65482;50.240;14.302;2023-07-20T02:11:31;5.45;;;2.78;;
76593;SDS011;65482;50.240;14.302;2023-07-20T02:13:57;8.63;;;2.88;;
76593;SDS011;65482;50.240;14.302;2023-07-20T02:16:22;4.28;;;2.85;;
76593;SDS011;65482;50.240;14.302;2023-07-20T02:18:48;4.00;;;2.40;;
76593;SDS011;65482;50.240;14.302;2023-07-20T02:21:13;5.78;;;2.78;;
76593;SDS011;65482;50.240;14.302;2023-07-20T02:23:39;5.13;;;2.60;;
76593;SDS011;65482;50.240;14.302;2023-07-20T02:26:04;6.45;;;2.70;;
76593;SDS011;65482;50.240;14.302;2023-07-20T02:28:30;5.93;;;2.92;;
76593;SDS011;65482;50.240;14.302;2023-07-20T02:30:55;3.97;;;3.10;;
76593;SDS011;65482;50.240;14.302;2023-07-20T02:33:21;3.35;;;2.53;;
76593;SDS011;65482;50.240;14.302;2023-07-20T02:35:47;3.88;;;2.72;;
76593;SDS011;65482;50.240;14.302;2023-07-20T02:38:12;3.40;;;2.45;;
76593;SDS011;65482;50.240;14.302;2023-07-20T02:40:38;3.13;;;2.35;;
76593;SDS011;65482;50.240;14.302;2023-07-20T02:43:04;7.13;;;2.50;;
76593;SDS011;65482;50.240;14.302;2023-07-20T02:45:29;5.55;;;2.83;;
76593;SDS011;65482;50.240;14.302;2023-07-20T02:47:55;8.20;;;2.42;;
76593;SDS011;65482;50.240;14.302;2023-07-20T02:50:20;6.53;;;2.67;;
76593;SDS011;65482;50.240;14.302;2023-07-20T02:52:46;6.68;;;2.70;;
76593;SDS011;65482;50.240;14.302;2023-07-20T02:55:11;4.45;;;2.65;;
76593;SDS011;65482;50.240;14.302;2023-07-20T02:57:37;3.28;;;2.58;;
76593;SDS011;65482;50.240;14.302;2023-07-20T03:00:03;6.60;;;2.47;;
76593;SDS011;65482;50.240;14.302;2023-07-20T03:02:31;4.38;;;2.88;;
76593;SDS011;65482;50.240;14.302;2023-07-20T03:04:56;4.80;;;2.70;;
76593;SDS011;65482;50.240;14.302;2023-07-20T03:07:27;3.78;;;2.63;;
76593;SDS011;65482;50.240;14.302;2023-07-20T03:09:53;4.75;;;2.90;;
76593;SDS011;65482;50.240;14.302;2023-07-20T03:12:20;4.53;;;2.78;;
76593;SDS011;65482;50.240;14.302;2023-07-20T03:14:46;4.35;;;2.75;;
76593;SDS011;65482;50.240;14.302;2023-07-20T03:17:12;5.00;;;3.10;;
76593;SDS011;65482;50.240;14.302;2023-07-20T03:19:37;4.47;;;2.75;;
76593;SDS011;65482;50.240;14.302;2023-07-20T03:22:03;6.78;;;2.83;;
76593;SDS011;65482;50.240;14.302;2023-07-20T03:24:29;3.50;;;2.72;;
76593;SDS011;65482;50.240;14.302;2023-07-20T03:26:54;5.30;;;2.80;;
76593;SDS011;65482;50.240;14.302;2023-07-20T03:29:20;4.07;;;2.95;;
76593;SDS011;65482;50.240;14.302;2023-07-20T03:31:45;6.25;;;3.42;;
76593;SDS011;65482;50.240;14.302;2023-07-20T03:34:11;4.25;;;3.20;;
76593;SDS011;65482;50.240;14.302;2023-07-20T03:36:36;4.07;;;2.80;;
76593;SDS011;65482;50.240;14.302;2023-07-20T03:39:02;5.28;;;2.90;;
76593;SDS011;65482;50.240;14.302;2023-07-20T03:41:28;3.75;;;2.72;;
76593;SDS011;65482;50.240;14.302;2023-07-20T03:43:53;4.68;;;2.63;;
76593;SDS011;65482;50.240;14.302;2023-07-20T03:46:19;7.35;;;2.90;;
76593;SDS011;65482;50.240;14.302;2023-07-20T03:48:45;3.67;;;2.65;;
76593;SDS011;65482;50.240;14.302;2023-07-20T03:51:10;4.90;;;3.13;;
76593;SDS011;65482;50.240;14.302;2023-07-20T03:53:36;5.47;;;2.80;;
76593;SDS011;65482;50.240;14.302;2023-07-20T03:56:02;4.82;;;2.83;;
76593;SDS011;65482;50.240;14.302;2023-07-20T03:58:27;7.13;;;3.13;;
76593;SDS011;65482;50.240;14.302;2023-07-20T04:00:53;4.75;;;3.00;;
76593;SDS011;65482;50.240;14.302;2023-07-20T04:03:19;6.80;;;2.50;;
76593;SDS011;65482;50.240;14.302;2023-07-20T04:05:45;7.15;;;2.70;;
76593;SDS011;65482;50.240;14.302;2023-07-20T04:08:11;5.45;;;2.72;;
76593;SDS011;65482;50.240;14.302;2023-07-20T04:10:37;4.03;;;2.80;;
76593;SDS011;65482;50.240;14.302;2023-07-20T04:13:03;7.60;;;2.50;;
76593;SDS011;65482;50.240;14.302;2023-07-20T04:15:29;3.85;;;2.67;;
76593;SDS011;65482;50.240;14.302;2023-07-20T04:17:54;4.50;;;3.00;;
76593;SDS011;65482;50.240;14.302;2023-07-20T04:20:22;5.50;;;3.33;;
76593;SDS011;65482;50.240;14.302;2023-07-20T04:22:48;5.18;;;2.90;;
76593;SDS011;65482;50.240;14.302;2023-07-20T04:25:14;6.32;;;3.20;;
76593;SDS011;65482;50.240;14.302;2023-07-20T04:27:39;4.38;;;3.08;;
76593;SDS011;65482;50.240;14.302;2023-07-20T04:30:07;3.95;;;2.65;;
76593;SDS011;65482;50.240;14.302;2023-07-20T04:32:33;7.65;;;3.60;;
76593;SDS011;65482;50.240;14.302;2023-07-20T04:34:59;5.43;;;3.30;;
76593;SDS011;65482;50.240;14.302;2023-07-20T04:37:24;3.40;;;3.10;;
76593;SDS011;65482;50.240;14.302;2023-07-20T04:39:50;5.07;;;3.03;;
76593;SDS011;65482;50.240;14.302;2023-07-20T04:42:16;4.47;;;3.13;;
76593;SDS011;65482;50.240;14.302;2023-07-20T04:44:41;6.55;;;2.88;;
76593;SDS011;65482;50.240;14.302;2023-07-20T04:47:07;6.22;;;3.40;;
76593;SDS011;65482;50.240;14.302;2023-07-20T04:49:34;3.30;;;2.90;;
76593;SDS011;65482;50.240;14.302;2023-07-20T04:51:59;3.85;;;3.38;;
76593;SDS011;65482;50.240;14.302;2023-07-20T04:54:25;5.45;;;3.42;;
76593;SDS011;65482;50.240;14.302;2023-07-20T04:56:52;4.75;;;3.28;;
76593;SDS011;65482;50.240;14.302;2023-07-20T04:59:18;5.38;;;3.30;;
76593;SDS011;65482;50.240;14.302;2023-07-20T05:01:44;9.07;;;3.50;;
76593;SDS011;65482;50.240;14.302;2023-07-20T05:04:09;4.10;;;3.10;;
76593;SDS011;65482;50.240;14.302;2023-07-20T05:06:35;4.43;;;3.15;;
76593;SDS011;65482;50.240;14.302;2023-07-20T05:09:01;7.20;;;4.35;;
76593;SDS011;65482;50.240;14.302;2023-07-20T05:11:27;4.90;;;3.20;;
76593;SDS011;65482;50.240;14.302;2023-07-20T05:13:53;4.95;;;3.30;;
76593;SDS011;65482;50.240;14.302;2023-07-20T05:16:18;4.88;;;2.88;;
76593;SDS011;65482;50.240;14.302;2023-07-20T05:18:44;5.45;;;3.30;;
76593;SDS011;65482;50.240;14.302;2023-07-20T05:21:09;3.30;;;2.65;;
76593;SDS011;65482;50.240;14.302;2023-07-20T05:23:35;5.78;;;3.10;;
76593;SDS011;65482;50.240;14.302;2023-07-20T05:26:01;6.38;;;3.40;;
76593;SDS011;65482;50.240;14.302;2023-07-20T05:28:26;5.78;;;3.30;;
76593;SDS011;65482;50.240;14.302;2023-07-20T05:30:52;9.23;;;3.25;;
76593;SDS011;65482;50.240;14.302;2023-07-20T05:33:19;19.45;;;3.45;;
76593;SDS011;65482;50.240;14.302;2023-07-20T05:35:45;16.02;;;3.55;;
76593;SDS011;65482;50.240;14.302;2023-07-20T05:38:10;4.70;;;3.42;;
76593;SDS011;65482;50.240;14.302;2023-07-20T05:40:40;8.07;;;3.22;;
76593;SDS011;65482;50.240;14.302;2023-07-20T05:43:10;5.25;;;3.03;;
76593;SDS011;65482;50.240;14.302;2023-07-20T05:45:36;53.97;;;5.22;;
76593;SDS011;65482;50.240;14.302;2023-07-20T05:48:02;4.15;;;2.97;;
76593;SDS011;65482;50.240;14.302;2023-07-20T05:50:28;8.00;;;3.78;;
76593;SDS011;65482;50.240;14.302;2023-07-20T05:52:54;4.30;;;3.10;;
76593;SDS011;65482;50.240;14.302;2023-07-20T05:55:19;43.75;;;4.05;;
76593;SDS011;65482;50.240;14.302;2023-07-20T05:57:46;4.53;;;2.88;;
76593;SDS011;65482;50.240;14.302;2023-07-20T06:00:13;3.75;;;2.88;;
76593;SDS011;65482;50.240;14.302;2023-07-20T06:02:39;6.28;;;3.10;;
76593;SDS011;65482;50.240;14.302;2023-07-20T06:05:05;4.90;;;2.78;;
76593;SDS011;65482;50.240;14.302;2023-07-20T06:07:37;7.88;;;2.97;;
76593;SDS011;65482;50.240;14.302;2023-07-20T06:10:03;4.57;;;2.80;;
76593;SDS011;65482;50.240;14.302;2023-07-20T06:12:29;4.90;;;2.95;;
76593;SDS011;65482;50.240;14.302;2023-07-20T06:14:54;11.88;;;2.50;;
76593;SDS011;65482;50.240;14.302;2023-07-20T06:17:20;6.25;;;2.38;;
76593;SDS011;65482;50.240;14.302;2023-07-20T06:19:46;6.75;;;2.60;;
76593;SDS011;65482;50.240;14.302;2023-07-20T06:22:11;4.57;;;2.30;;
76593;SDS011;65482;50.240;14.302;2023-07-20T06:24:37;3.80;;;2.50;;
76593;SDS011;65482;50.240;14.302;2023-07-20T06:27:03;2.75;;;2.08;;
76593;SDS011;65482;50.240;14.302;2023-07-20T06:29:30;6.30;;;2.30;;
76593;SDS011;65482;50.240;14.302;2023-07-20T06:31:56;4.07;;;2.67;;
76593;SDS011;65482;50.240;14.302;2023-07-20T06:34:21;6.18;;;2.30;;
76593;SDS011;65482;50.240;14.302;2023-07-20T06:36:47;7.88;;;2.75;;
76593;SDS011;65482;50.240;14.302;2023-07-20T06:39:12;17.48;;;2.95;;
76593;SDS011;65482;50.240;14.302;2023-07-20T06:41:39;6.45;;;2.40;;
76593;SDS011;65482;50.240;14.302;2023-07-20T06:44:05;8.25;;;2.20;;
76593;SDS011;65482;50.240;14.302;2023-07-20T06:46:30;11.95;;;3.60;;
76593;SDS011;65482;50.240;14.302;2023-07-20T06:48:56;5.03;;;2.40;;
76593;SDS011;65482;50.240;14.302;2023-07-20T06:51:22;5.32;;;2.50;;
76593;SDS011;65482;50.240;14.302;2023-07-20T06:53:47;3.33;;;2.30;;
76593;SDS011;65482;50.240;14.302;2023-07-20T06:56:13;5.30;;;2.40;;
76593;SDS011;65482;50.240;14.302;2023-07-20T06:58:39;3.42;;;2.38;;
76593;SDS011;65482;50.240;14.302;2023-07-20T07:01:05;3.38;;;2.42;;
76593;SDS011;65482;50.240;14.302;2023-07-20T07:03:32;5.63;;;3.30;;
76593;SDS011;65482;50.240;14.302;2023-07-20T07:05:58;6.10;;;2.50;;
76593;SDS011;65482;50.240;14.302;2023-07-20T07:08:23;6.95;;;3.10;;
76593;SDS011;65482;50.240;14.302;2023-07-20T07:10:50;5.70;;;2.50;;
76593;SDS011;65482;50.240;14.302;2023-07-20T07:13:15;4.45;;;2.08;;
76593;SDS011;65482;50.240;14.302;2023-07-20T07:15:42;6.00;;;2.28;;
76593;SDS011;65482;50.240;14.302;2023-07-20T07:18:07;2.30;;;2.00;;
76593;SDS011;65482;50.240;14.302;2023-07-20T07:20:33;3.00;;;2.20;;
76593;SDS011;65482;50.240;14.302;2023-07-20T07:22:58;4.32;;;1.95;;
76593;SDS011;65482;50.240;14.302;2023-07-20T07:25:24;4.07;;;2.10;;
76593;SDS011;65482;50.240;14.302;2023-07-20T07:27:51;5.47;;;2.65;;
76593;SDS011;65482;50.240;14.302;2023-07-20T07:30:18;8.32;;;2.60;;
76593;SDS011;65482;50.240;14.302;2023-07-20T07:32:44;3.40;;;2.10;;
76593;SDS011;65482;50.240;14.302;2023-07-20T07:35:10;5.82;;;2.17;;
76593;SDS011;65482;50.240;14.302;2023-07-20T07:37:35;3.13;;;1.95;;
76593;SDS011;65482;50.240;14.302;2023-07-20T07:40:02;7.97;;;2.05;;
76593;SDS011;65482;50.240;14.302;2023-07-20T07:42:28;6.97;;;2.13;;
76593;SDS011;65482;50.240;14.302;2023-07-20T07:44:54;3.45;;;1.73;;
76593;SDS011;65482;50.240;14.302;2023-07-20T07:47:20;1.92;;;1.50;;
76593;SDS011;65482;50.240;14.302;2023-07-20T07:49:46;2.50;;;1.77;;
76593;SDS011;65482;50.240;14.302;2023-07-20T07:52:11;3.17;;;1.45;;
76593;SDS011;65482;50.240;14.302;2023-07-20T07:54:37;4.13;;;1.67;;
76593;SDS011;65482;50.240;14.302;2023-07-20T07:57:02;4.10;;;1.58;;
76593;SDS011;65482;50.240;14.302;2023-07-20T07:59:28;4.50;;;1.40;;
76593;SDS011;65482;50.240;14.302;2023-07-20T08:01:56;3.13;;;1.60;;
76593;SDS011;65482;50.240;14.302;2023-07-20T08:04:22;2.28;;;2.03;;
76593;SDS011;65482;50.240;14.302;2023-07-20T08:06:47;3.53;;;2.00;;
76593;SDS011;65482;50.240;14.302;2023-07-20T08:09:13;6.40;;;4.00;;
76593;SDS011;65482;50.240;14.302;2023-07-20T08:11:39;9.60;;;3.85;;
76593;SDS011;65482;50.240;14.302;2023-07-20T08:14:05;5.07;;;2.35;;
76593;SDS011;65482;50.240;14.302;2023-07-20T08:16:30;2.38;;;1.60;;
76593;SDS011;65482;50.240;14.302;2023-07-20T08:18:56;2.38;;;1.60;;
76593;SDS011;65482;50.240;14.302;2023-07-20T08:21:21;75.82;;;6.65;;
76593;SDS011;65482;50.240;14.302;2023-07-20T08:23:47;19.27;;;2.70;;
76593;SDS011;65482;50.240;14.302;2023-07-20T08:26:12;3.22;;;1.48;;
76593;SDS011;65482;50.240;14.302;2023-07-20T08:28:38;4.60;;;1.67;;
76593;SDS011;65482;50.240;14.302;2023-07-20T08:31:05;4.18;;;1.80;;
76593;SDS011;65482;50.240;14.302;2023-07-20T08:33:31;1.85;;;1.70;;
76593;SDS011;65482;50.240;14.302;2023-07-20T08:35:58;3.65;;;1.98;;
76593;SDS011;65482;50.240;14.302;2023-07-20T08:38:26;3.33;;;1.70;;
76593;SDS011;65482;50.240;14.302;2023-07-20T08:40:51;6.93;;;1.70;;
76593;SDS011;65482;50.240;14.302;2023-07-20T08:43:19;5.32;;;1.52;;
76593;SDS011;65482;50.240;14.302;2023-07-20T08:45:48;2.92;;;1.73;;
76593;SDS011;65482;50.240;14.302;2023-07-20T08:48:17;5.40;;;1.98;;
76593;SDS011;65482;50.240;14.302;2023-07-20T08:50:44;5.13;;;1.52;;
76593;SDS011;65482;50.240;14.302;2023-07-20T08:53:11;4.78;;;1.85;;
76593;SDS011;65482;50.240;14.302;2023-07-20T08:55:38;8.35;;;1.70;;
76593;SDS011;65482;50.240;14.302;2023-07-20T08:58:04;3.95;;;1.58;;
76593;SDS011;65482;50.240;14.302;2023-07-20T09:00:36;4.13;;;1.60;;
76593;SDS011;65482;50.240;14.302;2023-07-20T09:03:02;1.70;;;1.50;;
76593;SDS011;65482;50.240;14.302;2023-07-20T09:05:28;4.00;;;2.28;;
76593;SDS011;65482;50.240;14.302;2023-07-20T09:07:54;4.90;;;1.40;;
76593;SDS011;65482;50.240;14.302;2023-07-20T09:10:23;2.22;;;1.80;;
76593;SDS011;65482;50.240;14.302;2023-07-20T09:12:49;5.05;;;1.90;;
76593;SDS011;65482;50.240;14.302;2023-07-20T09:15:15;5.38;;;1.20;;
76593;SDS011;65482;50.240;14.302;2023-07-20T09:17:45;2.33;;;1.48;;
76593;SDS011;65482;50.240;14.302;2023-07-20T09:20:12;1.75;;;1.48;;
76593;SDS011;65482;50.240;14.302;2023-07-20T09:22:41;1.67;;;1.33;;
76593;SDS011;65482;50.240;14.302;2023-07-20T09:25:13;3.30;;;1.75;;
76593;SDS011;65482;50.240;14.302;2023-07-20T09:27:42;6.97;;;1.60;;
76593;SDS011;65482;50.240;14.302;2023-07-20T09:30:09;8.98;;;1.90;;
76593;SDS011;65482;50.240;14.302;2023-07-20T09:32:39;10.15;;;2.15;;
76593;SDS011;65482;50.240;14.302;2023-07-20T09:35:14;2.28;;;1.80;;
76593;SDS011;65482;50.240;14.302;2023-07-20T09:37:52;2.33;;;1.42;;
76593;SDS011;65482;50.240;14.302;2023-07-20T09:40:21;2.20;;;1.60;;
76593;SDS011;65482;50.240;14.302;2023-07-20T09:42:47;3.22;;;1.70;;
76593;SDS011;65482;50.240;14.302;2023-07-20T09:45:13;2.97;;;1.75;;
76593;SDS011;65482;50.240;14.302;2023-07-20T09:47:39;2.08;;;1.60;;
76593;SDS011;65482;50.240;14.302;2023-07-20T09:50:06;7.40;;;4.05;;
76593;SDS011;65482;50.240;14.302;2023-07-20T09:52:39;6.15;;;2.38;;
76593;SDS011;65482;50.240;14.302;2023-07-20T09:55:06;3.63;;;1.52;;
76593;SDS011;65482;50.240;14.302;2023-07-20T09:57:37;5.38;;;1.83;;
76593;SDS011;65482;50.240;14.302;2023-07-20T10:00:03;6.65;;;2.05;;
76593;SDS011;65482;50.240;14.302;2023-07-20T10:02:34;4.25;;;1.90;;
76593;SDS011;65482;50.240;14.302;2023-07-20T10:05:06;3.95;;;2.58;;
76593;SDS011;65482;50.240;14.302;2023-07-20T10:07:36;3.72;;;1.52;;
76593;SDS011;65482;50.240;14.302;2023-07-20T10:10:05;1.85;;;1.60;;
76593;SDS011;65482;50.240;14.302;2023-07-20T10:12:33;5.10;;;1.77;;
76593;SDS011;65482;50.240;14.302;2023-07-20T10:15:43;3.55;;;2.00;;
76593;SDS011;65482;50.240;14.302;2023-07-20T10:17:58;8.35;;;1.92;;
76593;SDS011;65482;50.240;14.302;2023-07-20T10:20:27;10.70;;;2.88;;
76593;SDS011;65482;50.240;14.302;2023-07-20T10:22:55;5.05;;;1.80;;
76593;SDS011;65482;50.240;14.302;2023-07-20T10:25:22;5.03;;;1.70;;
76593;SDS011;65482;50.240;14.302;2023-07-20T10:27:48;3.45;;;1.80;;
76593;SDS011;65482;50.240;14.302;2023-07-20T10:30:15;3.63;;;1.75;;
76593;SDS011;65482;50.240;14.302;2023-07-20T10:32:43;7.82;;;2.00;;
76593;SDS011;65482;50.240;14.302;2023-07-20T10:35:16;3.97;;;1.80;;
76593;SDS011;65482;50.240;14.302;2023-07-20T10:37:52;3.25;;;1.58;;
76593;SDS011;65482;50.240;14.302;2023-07-20T10:42:55;3.88;;;1.60;;
76593;SDS011;65482;50.240;14.302;2023-07-20T10:48:20;3.00;;;1.52;;
76593;SDS011;65482;50.240;14.302;2023-07-20T10:51:30;2.60;;;1.48;;
76593;SDS011;65482;50.240;14.302;2023-07-20T10:53:45;2.10;;;1.52;;
76593;SDS011;65482;50.240;14.302;2023-07-20T10:56:13;3.28;;;1.35;;
76593;SDS011;65482;50.240;14.302;2023-07-20T10:58:46;2.47;;;1.53;;
76593;SDS011;65482;50.240;14.302;2023-07-20T11:01:15;3.05;;;1.73;;
76593;SDS011;65482;50.240;14.302;2023-07-20T11:03:42;2.72;;;1.80;;
76593;SDS011;65482;50.240;14.302;2023-07-20T11:09:02;2.22;;;1.35;;
76593;SDS011;65482;50.240;14.302;2023-07-20T11:11:41;4.22;;;1.58;;
76593;SDS011;65482;50.240;14.302;2023-07-20T11:14:09;2.13;;;1.60;;
76593;SDS011;65482;50.240;14.302;2023-07-20T11:16:45;1.73;;;1.63;;
76593;SDS011;65482;50.240;14.302;2023-07-20T11:19:25;2.88;;;1.65;;
76593;SDS011;65482;50.240;14.302;2023-07-20T11:21:52;1.65;;;1.35;;
76593;SDS011;65482;50.240;14.302;2023-07-20T11:24:23;1.33;;;1.23;;
76593;SDS011;65482;50.240;14.302;2023-07-20T11:26:50;2.70;;;1.70;;
76593;SDS011;65482;50.240;14.302;2023-07-20T11:29:16;2.47;;;2.10;;
76593;SDS011;65482;50.240;14.302;2023-07-20T11:31:44;3.45;;;1.40;;
76593;SDS011;65482;50.240;14.302;2023-07-20T11:34:11;2.33;;;1.33;;
76593;SDS011;65482;50.240;14.302;2023-07-20T11:36:39;4.93;;;1.50;;
76593;SDS011;65482;50.240;14.302;2023-07-20T11:39:13;2.78;;;1.52;;
76593;SDS011;65482;50.240;14.302;2023-07-20T11:41:46;2.60;;;1.55;;
76593;SDS011;65482;50.240;14.302;2023-07-20T11:44:13;2.20;;;1.53;;
76593;SDS011;65482;50.240;14.302;2023-07-20T11:46:42;2.25;;;1.33;;
76593;SDS011;65482;50.240;14.302;2023-07-20T11:49:09;2.90;;;1.50;;
76593;SDS011;65482;50.240;14.302;2023-07-20T11:51:35;3.05;;;1.27;;
76593;SDS011;65482;50.240;14.302;2023-07-20T11:54:02;5.15;;;1.75;;
76593;SDS011;65482;50.240;14.302;2023-07-20T11:56:29;2.97;;;1.58;;
76593;SDS011;65482;50.240;14.302;2023-07-20T11:58:59;4.28;;;1.60;;
76593;SDS011;65482;50.240;14.302;2023-07-20T12:01:27;7.57;;;1.50;;
76593;SDS011;65482;50.240;14.302;2023-07-20T12:03:56;6.63;;;1.60;;
76593;SDS011;65482;50.240;14.302;2023-07-20T12:06:25;2.35;;;1.40;;
76593;SDS011;65482;50.240;14.302;2023-07-20T12:08:54;3.80;;;1.55;;
76593;SDS011;65482;50.240;14.302;2023-07-20T12:11:36;5.72;;;1.65;;
76593;SDS011;65482;50.240;14.302;2023-07-20T12:14:04;9.75;;;2.00;;
76593;SDS011;65482;50.240;14.302;2023-07-20T12:16:31;3.05;;;1.60;;
76593;SDS011;65482;50.240;14.302;2023-07-20T12:19:00;4.35;;;1.80;;
76593;SDS011;65482;50.240;14.302;2023-07-20T12:21:26;4.65;;;1.50;;
76593;SDS011;65482;50.240;14.302;2023-07-20T12:23:52;3.58;;;1.63;;
76593;SDS011;65482;50.240;14.302;2023-07-20T12:26:18;3.15;;;1.55;;
76593;SDS011;65482;50.240;14.302;2023-07-20T12:28:45;2.58;;;1.60;;
76593;SDS011;65482;50.240;14.302;2023-07-20T12:31:11;2.20;;;1.60;;
76593;SDS011;65482;50.240;14.302;2023-07-20T12:33:38;5.00;;;1.50;;
76593;SDS011;65482;50.240;14.302;2023-07-20T12:36:04;5.15;;;1.55;;
76593;SDS011;65482;50.240;14.302;2023-07-20T12:38:30;3.60;;;1.40;;
76593;SDS011;65482;50.240;14.302;2023-07-20T12:41:00;2.72;;;1.52;;
76593;SDS011;65482;50.240;14.302;2023-07-20T12:43:29;3.83;;;1.38;;
76593;SDS011;65482;50.240;14.302;2023-07-20T12:45:55;2.00;;;1.40;;
76593;SDS011;65482;50.240;14.302;2023-07-20T12:48:21;5.07;;;1.55;;
76593;SDS011;65482;50.240;14.302;2023-07-20T12:50:47;2.78;;;1.50;;
76593;SDS011;65482;50.240;14.302;2023-07-20T12:53:13;8.02;;;1.45;;
76593;SDS011;65482;50.240;14.302;2023-07-20T12:55:38;2.78;;;1.27;;
76593;SDS011;65482;50.240;14.302;2023-07-20T12:58:05;1.50;;;1.30;;
76593;SDS011;65482;50.240;14.302;2023-07-20T13:00:30;2.55;;;1.33;;
76593;SDS011;65482;50.240;14.302;2023-07-20T13:02:57;1.92;;;1.50;;
76593;SDS011;65482;50.240;14.302;2023-07-20T13:05:23;2.47;;;1.30;;
76593;SDS011;65482;50.240;14.302;2023-07-20T13:07:49;4.88;;;1.52;;
76593;SDS011;65482;50.240;14.302;2023-07-20T13:10:15;2.30;;;1.20;;
76593;SDS011;65482;50.240;14.302;2023-07-20T13:12:40;2.40;;;1.30;;
76593;SDS011;65482;50.240;14.302;2023-07-20T13:15:06;7.47;;;1.52;;
76593;SDS011;65482;50.240;14.302;2023-07-20T13:17:34;2.63;;;1.70;;
76593;SDS011;65482;50.240;14.302;2023-07-20T13:20:00;2.95;;;1.30;;
76593;SDS011;65482;50.240;14.302;2023-07-20T13:22:28;10.25;;;1.55;;
76593;SDS011;65482;50.240;14.302;2023-07-20T13:24:53;3.92;;;1.58;;
76593;SDS011;65482;50.240;14.302;2023-07-20T13:27:19;2.75;;;1.30;;
76593;SDS011;65482;50.240;14.302;2023-07-20T13:29:45;3.10;;;1.10;;
76593;SDS011;65482;50.240;14.302;2023-07-20T13:32:14;1.63;;;0.90;;
76593;SDS011;65482;50.240;14.302;2023-07-20T13:34:40;5.78;;;0.95;;
76593;SDS011;65482;50.240;14.302;2023-07-20T13:37:08;6.05;;;1.10;;
76593;SDS011;65482;50.240;14.302;2023-07-20T13:39:34;3.17;;;1.00;;
76593;SDS011;65482;50.240;14.302;2023-07-20T13:42:00;4.18;;;1.20;;
76593;SDS011;65482;50.240;14.302;2023-07-20T13:44:29;4.38;;;1.65;;
76593;SDS011;65482;50.240;14.302;2023-07-20T13:46:54;1.98;;;1.20;;
76593;SDS011;65482;50.240;14.302;2023-07-20T13:49:20;2.47;;;1.15;;
76593;SDS011;65482;50.240;14.302;2023-07-20T13:51:45;2.05;;;1.25;;
76593;SDS011;65482;50.240;14.302;2023-07-20T13:54:11;2.13;;;1.20;;
76593;SDS011;65482;50.240;14.302;2023-07-20T13:56:37;5.30;;;1.27;;
76593;SDS011;65482;50.240;14.302;2023-07-20T13:59:03;3.17;;;1.33;;
76593;SDS011;65482;50.240;14.302;2023-07-20T14:01:28;1.30;;;1.20;;
76593;SDS011;65482;50.240;14.302;2023-07-20T14:03:55;4.47;;;1.30;;
76593;SDS011;65482;50.240;14.302;2023-07-20T14:06:21;6.07;;;1.30;;
76593;SDS011;65482;50.240;14.302;2023-07-20T14:08:47;3.30;;;1.30;;
76593;SDS011;65482;50.240;14.302;2023-07-20T14:11:14;3.67;;;1.30;;
76593;SDS011;65482;50.240;14.302;2023-07-20T14:13:40;2.17;;;1.10;;
76593;SDS011;65482;50.240;14.302;2023-07-20T14:16:06;2.13;;;1.30;;
76593;SDS011;65482;50.240;14.302;2023-07-20T14:18:33;4.22;;;1.40;;
76593;SDS011;65482;50.240;14.302;2023-07-20T14:20:58;4.20;;;1.30;;
76593;SDS011;65482;50.240;14.302;2023-07-20T14:23:24;4.00;;;1.50;;
76593;SDS011;65482;50.240;14.302;2023-07-20T14:25:50;3.78;;;1.20;;
76593;SDS011;65482;50.240;14.302;2023-07-20T14:28:16;4.22;;;1.40;;
76593;SDS011;65482;50.240;14.302;2023-07-20T14:30:42;7.70;;;1.38;;
76593;SDS011;65482;50.240;14.302;2023-07-20T14:33:07;4.38;;;1.30;;
76593;SDS011;65482;50.240;14.302;2023-07-20T14:35:33;8.32;;;1.23;;
76593;SDS011;65482;50.240;14.302;2023-07-20T14:37:59;14.75;;;1.42;;
76593;SDS011;65482;50.240;14.302;2023-07-20T14:40:26;8.85;;;1.48;;
76593;SDS011;65482;50.240;14.302;2023-07-20T14:42:52;7.05;;;1.40;;
76593;SDS011;65482;50.240;14.302;2023-07-20T14:45:18;11.18;;;1.40;;
76593;SDS011;65482;50.240;14.302;2023-07-20T14:47:44;8.60;;;1.30;;
76593;SDS011;65482;50.240;14.302;2023-07-20T14:50:10;5.15;;;1.10;;